Time;durP1;ratioP1;P1;durP2;ratioP2;P2;SDS_P1;SDS_P2;PMS_P1;PMS_P2;Temp;Humidity;BMP_temperature;BMP_pressure;BME280_temperature;BME280_humidity;BME280_pressure;Samples;Min_cycle;Max_cycle;Signal;HPM_P1;HPM_P2
2021/05/22 00:02:19;;;;;;;1.10;1.00;;;20.90;50.50;;;;;;10326509;28;20722;-15
2021/05/22 00:07:40;;;;;;;1.10;0.90;;;20.90;50.50;;;;;;10325556;28;20198;-15
2021/05/22 00:13:03;;;;;;;1.47;0.73;;;21.00;50.50;;;;;;10325671;28;20238;-15
2021/05/22 00:18:25;;;;;;;1.17;0.80;;;20.90;50.60;;;;;;10328563;28;20690;-15
2021/05/22 00:23:47;;;;;;;0.80;0.70;;;20.90;50.60;;;;;;10323981;28;20722;-15
2021/05/22 00:29:09;;;;;;;1.40;0.70;;;20.90;50.60;;;;;;10328580;28;20206;-14
2021/05/22 00:34:31;;;;;;;1.27;0.80;;;20.90;50.70;;;;;;10325005;28;20231;-15
2021/05/22 00:39:53;;;;;;;0.87;0.77;;;20.90;50.40;;;;;;10324511;28;20187;-15
2021/05/22 00:45:17;;;;;;;1.10;0.80;;;21.00;50.40;;;;;;10326743;28;20226;-16
2021/05/22 00:50:41;;;;;;;1.53;0.80;;;21.00;50.40;;;;;;10324222;28;20207;-15
2021/05/22 00:56:04;;;;;;;3.30;1.00;;;21.00;50.30;;;;;;10322635;28;20272;-14
2021/05/22 01:01:25;;;;;;;1.70;0.93;;;20.90;50.40;;;;;;10323351;28;20219;-15
2021/05/22 01:06:48;;;;;;;2.10;0.77;;;20.90;50.50;;;;;;10286622;28;20191;-15
2021/05/22 01:12:11;;;;;;;1.33;0.80;;;21.00;50.40;;;;;;10284148;28;20285;-14
2021/05/22 01:17:35;;;;;;;1.00;0.70;;;20.90;51.00;;;;;;10284848;28;20200;-15
2021/05/22 01:23:03;;;;;;;1.53;0.97;;;20.80;50.60;;;;;;10305164;28;20691;-15
2021/05/22 01:28:26;;;;;;;0.93;0.80;;;21.00;50.40;;;;;;10327916;28;20581;-14
2021/05/22 01:33:47;;;;;;;2.07;0.80;;;21.00;50.20;;;;;;10324242;28;20276;-15
2021/05/22 01:39:09;;;;;;;1.67;0.60;;;21.00;50.30;;;;;;10327010;28;20737;-15
2021/05/22 01:44:35;;;;;;;1.27;0.60;;;20.90;50.40;;;;;;10283224;28;20226;-15
2021/05/22 01:49:57;;;;;;;2.03;0.80;;;20.90;50.30;;;;;;10319203;28;20691;-15
2021/05/22 01:55:19;;;;;;;1.43;0.80;;;20.90;50.30;;;;;;10322441;28;20234;-14
2021/05/22 02:00:44;;;;;;;0.97;0.60;;;20.80;51.00;;;;;;10323907;28;20319;-15
2021/05/22 02:06:13;;;;;;;0.73;0.53;;;20.90;50.40;;;;;;10323597;28;20215;-15
2021/05/22 02:11:39;;;;;;;0.83;0.67;;;20.90;50.30;;;;;;10323010;28;20238;-13
2021/05/22 02:17:05;;;;;;;1.10;0.50;;;20.90;50.30;;;;;;10324420;28;20198;-15
2021/05/22 02:22:27;;;;;;;1.80;0.70;;;20.90;50.30;;;;;;10322607;28;20753;-15
2021/05/22 02:27:49;;;;;;;0.90;0.80;;;20.90;50.30;;;;;;10324768;28;20195;-15
2021/05/22 02:33:12;;;;;;;0.87;0.40;;;21.00;50.30;;;;;;10322115;28;20223;-15
2021/05/22 02:38:38;;;;;;;0.67;0.60;;;20.90;50.20;;;;;;10325317;28;20721;-13
2021/05/22 02:44:02;;;;;;;0.53;0.47;;;21.00;50.20;;;;;;10520034;28;20652;-15
2021/05/22 02:49:27;;;;;;;0.80;0.50;;;20.90;50.20;;;;;;10541171;28;20568;-15
2021/05/22 02:54:51;;;;;;;1.07;0.70;;;20.80;50.40;;;;;;10541215;28;20640;-15
2021/05/22 03:00:13;;;;;;;0.80;0.70;;;20.90;50.30;;;;;;10541311;28;20664;-15
2021/05/22 03:05:36;;;;;;;1.53;0.90;;;21.00;50.20;;;;;;10540701;28;20707;-15
2021/05/22 03:10:58;;;;;;;1.13;0.70;;;20.90;50.20;;;;;;10541007;28;20196;-15
2021/05/22 03:16:19;;;;;;;0.90;0.70;;;21.00;50.10;;;;;;10498727;22;20234;-13
2021/05/22 03:21:42;;;;;;;1.37;0.60;;;20.90;50.00;;;;;;10535623;28;20726;-15
2021/05/22 03:27:04;;;;;;;1.40;0.50;;;21.00;50.00;;;;;;10464482;28;20200;-15
2021/05/22 03:32:26;;;;;;;1.20;0.70;;;21.00;50.10;;;;;;10497687;28;20220;-14
2021/05/22 03:37:48;;;;;;;0.90;0.80;;;20.90;50.20;;;;;;10497675;28;20192;-13
2021/05/22 03:43:10;;;;;;;0.90;0.57;;;20.80;50.30;;;;;;10496312;28;20262;-13
2021/05/22 03:48:31;;;;;;;2.03;0.87;;;20.90;50.30;;;;;;10498102;28;20254;-14
2021/05/22 03:53:54;;;;;;;0.50;0.50;;;20.90;50.40;;;;;;10496132;28;20746;-13
2021/05/22 03:59:15;;;;;;;1.60;0.70;;;20.80;50.40;;;;;;10497156;28;20205;-15
2021/05/22 04:04:37;;;;;;;0.70;0.50;;;21.00;50.20;;;;;;10496293;28;20281;-14
2021/05/22 04:09:59;;;;;;;2.30;0.80;;;20.90;50.10;;;;;;10496693;28;20196;-14
2021/05/22 04:15:21;;;;;;;1.73;0.60;;;21.00;50.10;;;;;;10495645;28;20728;-14
2021/05/22 04:20:43;;;;;;;0.83;0.60;;;21.00;50.00;;;;;;10496324;28;20192;-14
2021/05/22 04:26:05;;;;;;;0.57;0.47;;;20.90;50.10;;;;;;10495844;28;20212;-13
2021/05/22 04:31:27;;;;;;;0.40;0.40;;;20.90;50.20;;;;;;10495656;28;20189;-14
2021/05/22 04:36:48;;;;;;;0.80;0.50;;;20.90;50.30;;;;;;10494427;28;20231;-15
2021/05/22 04:42:11;;;;;;;0.87;0.50;;;20.90;50.30;;;;;;10494751;28;20200;-13
2021/05/22 04:47:33;;;;;;;1.97;0.80;;;20.90;50.10;;;;;;10493922;28;20193;-13
2021/05/22 04:52:55;;;;;;;0.80;0.50;;;20.90;50.10;;;;;;10493442;28;20289;-13
2021/05/22 04:58:17;;;;;;;0.70;0.40;;;20.90;50.20;;;;;;10494361;28;20196;-13
2021/05/22 05:03:39;;;;;;;0.80;0.50;;;20.90;50.30;;;;;;10494557;28;20231;-13
2021/05/22 05:09:00;;;;;;;1.20;0.50;;;20.80;50.50;;;;;;10493610;28;20204;-14
2021/05/22 05:14:23;;;;;;;0.87;0.53;;;20.70;50.50;;;;;;10493642;28;20220;-13
2021/05/22 05:19:44;;;;;;;0.97;0.50;;;20.80;50.50;;;;;;10491585;28;20196;-14
2021/05/22 05:25:08;;;;;;;1.03;0.57;;;20.90;50.20;;;;;;10494273;28;20212;-14
2021/05/22 05:30:30;;;;;;;0.40;0.40;;;20.90;50.20;;;;;;10499121;28;20207;-16
2021/05/22 05:35:52;;;;;;;0.93;0.50;;;20.80;50.40;;;;;;10493581;28;20220;-14
2021/05/22 05:41:14;;;;;;;0.60;0.50;;;20.90;50.50;;;;;;10490240;28;20293;-14
2021/05/22 05:46:36;;;;;;;1.60;0.70;;;20.80;50.50;;;;;;10493033;28;20224;-14
2021/05/22 05:51:58;;;;;;;0.70;0.40;;;20.80;50.60;;;;;;10490059;28;20200;-14
2021/05/22 05:57:20;;;;;;;1.00;0.60;;;20.90;50.40;;;;;;10493060;28;20235;-14
2021/05/22 06:02:43;;;;;;;0.60;0.50;;;20.90;50.30;;;;;;10493514;28;20216;-15
2021/05/22 06:08:05;;;;;;;0.60;0.50;;;21.00;50.20;;;;;;10494352;28;20207;-13
2021/05/22 06:13:29;;;;;;;0.83;0.50;;;21.00;50.30;;;;;;10491288;28;20224;-15
2021/05/22 06:18:53;;;;;;;0.50;0.40;;;21.00;50.30;;;;;;10500774;28;20223;-14
2021/05/22 06:24:14;;;;;;;0.70;0.60;;;20.90;50.40;;;;;;10498993;28;20270;-13
2021/05/22 06:29:36;;;;;;;0.53;0.47;;;20.90;50.50;;;;;;10500781;28;20207;-14
2021/05/22 06:34:59;;;;;;;0.40;0.40;;;21.00;50.40;;;;;;10500342;28;20658;-13
2021/05/22 06:40:21;;;;;;;4.40;0.80;;;21.00;50.50;;;;;;10499023;28;20192;-14
2021/05/22 06:45:44;;;;;;;2.80;0.70;;;21.10;50.30;;;;;;10499064;28;20212;-15
2021/05/22 06:51:06;;;;;;;1.17;0.80;;;21.10;50.10;;;;;;10498294;28;20200;-13
2021/05/22 06:56:28;;;;;;;2.20;0.83;;;21.00;50.30;;;;;;10493489;28;20228;-13
2021/05/22 07:01:49;;;;;;;1.13;0.63;;;21.00;50.60;;;;;;10481334;28;20258;-15
2021/05/22 07:07:12;;;;;;;2.33;0.70;;;20.90;50.60;;;;;;10499156;28;20326;-13
2021/05/22 07:12:34;;;;;;;2.47;0.80;;;20.90;50.70;;;;;;10494978;28;20732;-13
2021/05/22 07:17:55;;;;;;;1.20;0.57;;;20.90;50.90;;;;;;10498642;28;20192;-14
2021/05/22 07:23:18;;;;;;;0.80;0.50;;;20.90;51.10;;;;;;10498136;28;20266;-12
2021/05/22 07:28:39;;;;;;;3.10;0.60;;;20.90;51.20;;;;;;10498361;28;20669;-11
2021/05/22 07:34:02;;;;;;;2.57;0.80;;;20.80;51.40;;;;;;10507183;28;20224;-12
2021/05/22 07:39:25;;;;;;;2.17;0.70;;;20.80;51.10;;;;;;10496550;28;20193;-15
2021/05/22 07:44:46;;;;;;;1.10;0.60;;;20.90;50.90;;;;;;10475952;28;20266;-15
2021/05/22 07:50:09;;;;;;;1.73;0.60;;;21.00;50.90;;;;;;10495547;28;20207;-13
2021/05/22 07:55:31;;;;;;;4.43;0.70;;;21.00;50.90;;;;;;10532916;28;20223;-14
2021/05/22 08:00:53;;;;;;;43.27;3.30;;;21.00;49.90;;;;;;10518448;28;20262;-14
2021/05/22 08:06:15;;;;;;;28.83;3.07;;;21.00;48.30;;;;;;10525993;28;20223;-14
2021/05/22 08:11:37;;;;;;;23.23;2.07;;;21.00;48.50;;;;;;10537542;28;20229;-13
2021/05/22 08:16:59;;;;;;;19.23;2.73;;;21.00;49.10;;;;;;10536270;28;20224;-14
2021/05/22 08:22:20;;;;;;;21.30;2.50;;;21.00;49.50;;;;;;10536880;28;20664;-14
2021/05/22 08:27:43;;;;;;;24.57;2.60;;;21.00;49.80;;;;;;10537242;28;20191;-13
2021/05/22 08:33:05;;;;;;;34.57;3.97;;;21.00;50.00;;;;;;10536706;28;20215;-14
2021/05/22 08:38:26;;;;;;;28.43;3.70;;;20.90;49.80;;;;;;10534928;28;20207;-13
2021/05/22 08:43:49;;;;;;;24.50;3.03;;;20.80;49.90;;;;;;10489003;28;20209;-14
2021/05/22 08:49:11;;;;;;;18.77;2.70;;;20.80;49.60;;;;;;10495309;28;20196;-13
2021/05/22 08:54:33;;;;;;;14.77;2.13;;;21.00;49.90;;;;;;10509021;28;20224;-12
2021/05/22 08:59:55;;;;;;;14.53;2.63;;;21.00;49.70;;;;;;10535915;28;20571;-15
2021/05/22 09:05:21;;;;;;;9.50;1.77;;;21.10;49.80;;;;;;10534448;28;20584;-14
2021/05/22 09:10:44;;;;;;;10.87;1.53;;;21.10;49.80;;;;;;10533846;28;20188;-14
2021/05/22 09:16:09;;;;;;;7.43;1.70;;;21.00;49.90;;;;;;10422644;22;20239;-13
2021/05/22 09:21:35;;;;;;;7.97;1.87;;;21.10;50.10;;;;;;10347177;28;20214;-15
2021/05/22 09:27:09;;;;;;;3.53;1.20;;;21.10;49.90;;;;;;10487380;28;20211;-15
2021/05/22 09:32:31;;;;;;;9.20;1.90;;;21.00;49.90;;;;;;10539567;28;20215;-15
2021/05/22 09:37:55;;;;;;;4.43;1.47;;;21.10;50.30;;;;;;10536644;28;20218;-15
2021/05/22 09:43:17;;;;;;;5.17;1.33;;;21.00;50.00;;;;;;10499809;28;20199;-15
2021/05/22 09:48:39;;;;;;;7.83;1.40;;;21.00;49.90;;;;;;10494633;28;20196;-16
2021/05/22 09:54:01;;;;;;;9.00;1.77;;;21.10;50.00;;;;;;10507103;28;20223;-14
2021/05/22 09:59:22;;;;;;;4.83;1.17;;;21.10;50.00;;;;;;10543307;28;20265;-16
2021/05/22 10:04:45;;;;;;;4.43;1.70;;;21.10;50.00;;;;;;10509740;28;20246;-15
2021/05/22 10:10:07;;;;;;;5.10;0.93;;;21.20;50.00;;;;;;10498630;28;20688;-15
2021/05/22 10:15:29;;;;;;;2.97;1.00;;;21.20;50.10;;;;;;10499917;28;20213;-16
2021/05/22 10:20:53;;;;;;;4.40;1.10;;;21.10;50.20;;;;;;10501449;28;20270;-15
2021/05/22 10:26:15;;;;;;;3.50;1.10;;;21.20;50.30;;;;;;10499924;28;20216;-15
2021/05/22 10:31:39;;;;;;;9.77;1.20;;;21.10;50.30;;;;;;10498517;28;20201;-15
2021/05/22 10:37:02;;;;;;;5.10;1.20;;;21.00;50.50;;;;;;10525722;28;20704;-13
2021/05/22 10:42:45;;;;;;;9.83;2.10;;;21.00;50.70;;;;;;10504639;28;20211;-16
2021/05/22 10:48:09;;;;;;;9.30;1.93;;;21.00;50.40;;;;;;10498865;28;20212;-15
2021/05/22 10:53:33;;;;;;;6.70;1.60;;;21.10;50.30;;;;;;10525777;28;20203;-13
2021/05/22 10:59:12;;;;;;;7.87;1.97;;;21.10;50.50;;;;;;10540254;28;20192;-15
2021/05/22 11:04:36;;;;;;;5.87;2.00;;;21.20;50.30;;;;;;10539854;28;20607;-12
2021/05/22 11:09:59;;;;;;;4.40;1.63;;;21.30;50.10;;;;;;10513694;28;20262;-13
2021/05/22 11:15:46;;;;;;;7.17;2.33;;;21.10;50.40;;;;;;10497987;28;20219;-15
2021/05/22 11:21:19;;;;;;;7.87;3.00;;;21.20;50.40;;;;;;10498080;28;20304;-17
2021/05/22 11:27:07;;;;;;;11.93;3.23;;;21.20;50.30;;;;;;10497417;28;20709;-13
2021/05/22 11:32:51;;;;;;;12.60;4.00;;;21.20;50.40;;;;;;10475519;28;20207;-13
2021/05/22 11:38:34;;;;;;;10.33;3.60;;;21.20;50.20;;;;;;10500899;28;20557;-14
2021/05/22 11:44:09;;;;;;;9.80;3.10;;;21.20;50.50;;;;;;10501848;28;20238;-16
2021/05/22 11:49:33;;;;;;;8.73;3.50;;;21.20;50.40;;;;;;10513978;28;20204;-13
2021/05/22 11:54:54;;;;;;;8.77;3.20;;;21.30;50.30;;;;;;10455388;28;20256;-13
2021/05/22 12:00:26;;;;;;;7.77;3.03;;;21.30;50.30;;;;;;10534695;28;20187;-16
2021/05/22 12:05:48;;;;;;;8.00;3.07;;;21.20;50.40;;;;;;10536486;28;20219;-15
2021/05/22 12:11:14;;;;;;;10.13;3.13;;;21.10;50.60;;;;;;10505120;28;20200;-15
2021/05/22 12:16:37;;;;;;;6.47;2.90;;;21.20;50.40;;;;;;10484698;28;20220;-13
2021/05/22 12:21:59;;;;;;;11.67;3.30;;;21.10;50.60;;;;;;10454562;28;20251;-15
2021/05/22 12:27:20;;;;;;;10.00;3.97;;;21.10;50.60;;;;;;10454028;28;20201;-15
2021/05/22 12:32:43;;;;;;;6.67;3.10;;;21.10;50.80;;;;;;10464929;28;20194;-13
2021/05/22 12:38:05;;;;;;;9.50;3.30;;;21.20;50.80;;;;;;10535763;28;20575;-14
2021/05/22 12:43:41;;;;;;;7.47;3.23;;;21.10;50.80;;;;;;10496598;28;20595;-15
2021/05/22 12:49:14;;;;;;;9.67;2.83;;;21.10;51.00;;;;;;10493132;28;20192;-13
2021/05/22 12:54:44;;;;;;;11.27;3.17;;;21.10;51.10;;;;;;10474700;28;20259;-14
2021/05/22 13:00:09;;;;;;;13.43;3.85;;;21.20;51.30;;;;;;10478342;28;20417;-13
2021/05/22 13:05:33;;;;;;;9.07;2.87;;;22.30;48.70;;;;;;10457134;28;20685;-15
2021/05/22 13:11:08;;;;;;;10.53;2.77;;;21.60;50.90;;;;;;10452212;28;20193;-15
2021/05/22 13:16:30;;;;;;;6.43;3.17;;;21.40;51.50;;;;;;10452817;28;20220;-15
2021/05/22 13:21:53;;;;;;;13.90;2.90;;;21.40;52.00;;;;;;10467643;28;20192;-13
2021/05/22 13:27:14;;;;;;;7.83;3.27;;;21.40;52.20;;;;;;10493858;28;20211;-15
2021/05/22 13:32:37;;;;;;;10.87;2.83;;;21.30;52.20;;;;;;10498158;28;20721;-15
2021/05/22 13:38:01;;;;;;;6.10;2.77;;;21.30;52.40;;;;;;10535097;28;20207;-15
2021/05/22 13:43:23;;;;;;;9.87;3.43;;;21.30;52.50;;;;;;10495936;28;20199;-14
2021/05/22 13:48:45;;;;;;;7.63;3.20;;;21.20;52.70;;;;;;10493785;28;20200;-15
2021/05/22 13:54:08;;;;;;;8.27;2.87;;;21.20;52.50;;;;;;10493048;28;20216;-16
2021/05/22 13:59:29;;;;;;;6.90;2.70;;;21.10;52.60;;;;;;10493336;28;20196;-15
2021/05/22 14:04:51;;;;;;;6.27;2.90;;;21.10;52.40;;;;;;10520723;28;20219;-15
2021/05/22 14:10:15;;;;;;;7.30;2.83;;;21.20;52.70;;;;;;10517840;28;20195;-14
2021/05/22 14:15:37;;;;;;;7.27;2.47;;;21.10;52.60;;;;;;10502839;28;20227;-15
2021/05/22 14:20:58;;;;;;;5.33;2.03;;;21.10;52.70;;;;;;10507006;28;20187;-15
2021/05/22 14:26:22;;;;;;;5.90;2.13;;;21.10;52.50;;;;;;10469541;28;20216;-15
2021/05/22 14:31:43;;;;;;;6.20;2.27;;;21.10;52.60;;;;;;10492013;28;20242;-12
2021/05/22 14:37:05;;;;;;;6.33;2.50;;;21.10;52.50;;;;;;10479012;28;20228;-15
2021/05/22 14:42:28;;;;;;;5.47;2.27;;;21.20;52.40;;;;;;10487084;28;20196;-15
2021/05/22 14:47:51;;;;;;;6.13;2.63;;;21.10;52.40;;;;;;10500241;28;20212;-15
2021/05/22 14:53:13;;;;;;;6.53;2.17;;;21.10;52.50;;;;;;10498927;28;20663;-15
2021/05/22 14:58:36;;;;;;;6.50;1.93;;;21.10;52.50;;;;;;10523060;28;20202;-12
2021/05/22 15:03:57;;;;;;;4.07;2.20;;;21.20;52.20;;;;;;10518937;28;20208;-16
2021/05/22 15:09:19;;;;;;;4.23;2.00;;;21.10;52.30;;;;;;10518684;28;20191;-13
2021/05/22 15:14:41;;;;;;;3.10;1.70;;;21.10;52.40;;;;;;10508821;28;20218;-15
2021/05/22 15:20:05;;;;;;;4.20;2.10;;;21.20;52.30;;;;;;10539768;28;20192;-14
2021/05/22 15:25:31;;;;;;;3.20;1.87;;;21.10;52.30;;;;;;10513161;28;20220;-15
2021/05/22 15:30:53;;;;;;;3.40;1.50;;;21.10;52.40;;;;;;10490138;28;20192;-15
2021/05/22 15:36:15;;;;;;;3.83;1.87;;;21.10;52.30;;;;;;10456954;28;20767;-16
2021/05/22 15:41:36;;;;;;;4.30;1.70;;;21.10;52.30;;;;;;10483004;28;20200;-13
2021/05/22 15:46:59;;;;;;;3.20;1.73;;;21.10;52.20;;;;;;10498136;28;20208;-14
2021/05/22 15:58:08;;;;;;;4.67;1.83;;;21.10;52.20;;;;;;10496566;28;20220;-16
2021/05/22 16:09:15;;;;;;;4.07;2.10;;;21.20;52.00;;;;;;10509639;28;20287;-14
2021/05/22 16:14:37;;;;;;;3.40;1.73;;;21.10;52.20;;;;;;10515395;28;20212;-15
2021/05/22 16:20:00;;;;;;;3.40;1.47;;;21.00;52.50;;;;;;10519340;28;20657;-15
2021/05/22 16:25:21;;;;;;;3.77;1.80;;;21.10;52.30;;;;;;10467083;28;20218;-14
2021/05/22 16:30:43;;;;;;;5.40;1.80;;;21.10;52.20;;;;;;10506027;28;20203;-13
2021/05/22 16:36:06;;;;;;;4.90;2.00;;;21.10;52.20;;;;;;10537237;28;20247;-16
2021/05/22 16:41:28;;;;;;;2.77;1.47;;;21.00;52.50;;;;;;10515306;28;20193;-13
2021/05/22 16:46:49;;;;;;;3.60;1.63;;;21.10;52.60;;;;;;10494263;28;20616;-15
2021/05/22 16:52:12;;;;;;;3.43;1.70;;;21.10;52.40;;;;;;10494264;28;20184;-13
2021/05/22 16:57:33;;;;;;;4.27;1.43;;;21.10;52.50;;;;;;10493781;28;20216;-14
2021/05/22 17:02:56;;;;;;;3.20;1.67;;;21.00;52.70;;;;;;10493937;28;20192;-14
2021/05/22 17:08:18;;;;;;;2.33;1.13;;;21.00;52.70;;;;;;10500384;28;20276;-14
2021/05/22 17:13:40;;;;;;;3.93;1.90;;;21.00;52.80;;;;;;10493595;28;20223;-15
2021/05/22 17:19:02;;;;;;;4.27;1.97;;;21.00;52.90;;;;;;10512249;22;20259;-16
2021/05/22 17:24:25;;;;;;;3.80;2.30;;;21.10;52.70;;;;;;10435936;28;20398;-15
2021/05/22 17:29:46;;;;;;;3.83;2.67;;;21.10;52.40;;;;;;10424118;28;20217;-15
2021/05/22 17:35:09;;;;;;;3.97;2.80;;;21.10;52.50;;;;;;10421125;28;20270;-15
2021/05/22 17:40:31;;;;;;;5.43;3.10;;;21.00;52.60;;;;;;10424021;28;20209;-15
2021/05/22 17:45:53;;;;;;;4.90;3.73;;;21.00;52.70;;;;;;10421094;28;20255;-15
2021/05/22 17:51:16;;;;;;;4.43;3.17;;;21.10;52.70;;;;;;10421744;28;20221;-15
2021/05/22 17:56:39;;;;;;;5.10;3.33;;;21.00;52.60;;;;;;10423235;28;20586;-15
2021/05/22 18:02:00;;;;;;;5.87;3.10;;;21.00;52.70;;;;;;10418722;28;20220;-15
2021/05/22 18:07:22;;;;;;;6.03;4.33;;;21.00;52.90;;;;;;10408434;28;20240;-15
2021/05/22 18:12:44;;;;;;;6.27;4.87;;;21.00;52.90;;;;;;10406216;28;20221;-15
2021/05/22 18:18:07;;;;;;;5.90;4.50;;;21.10;52.80;;;;;;10445534;28;20591;-15
2021/05/22 18:23:29;;;;;;;6.20;4.87;;;21.20;52.60;;;;;;10425217;28;20217;-15
2021/05/22 18:28:51;;;;;;;5.50;4.53;;;21.10;52.70;;;;;;10442260;28;20271;-12
2021/05/22 18:34:14;;;;;;;6.43;4.70;;;21.10;52.70;;;;;;10458570;28;20274;-15
2021/05/22 18:39:36;;;;;;;6.10;4.53;;;21.10;52.70;;;;;;10403715;28;20224;-15
2021/05/22 18:44:58;;;;;;;5.93;4.80;;;21.10;52.70;;;;;;10413356;28;20436;-15
2021/05/22 18:50:22;;;;;;;6.13;4.30;;;22.20;49.80;;;;;;10416558;28;20224;-15
2021/05/22 18:55:44;;;;;;;6.90;3.90;;;21.50;51.70;;;;;;10416110;28;20222;-15
2021/05/22 19:01:07;;;;;;;5.03;3.97;;;21.40;51.70;;;;;;10415916;28;20721;-15
2021/05/22 19:06:28;;;;;;;5.77;4.00;;;21.40;51.80;;;;;;10415598;28;20193;-15
2021/05/22 19:11:50;;;;;;;4.73;3.57;;;21.40;51.80;;;;;;10413575;28;20225;-15
2021/05/22 19:17:13;;;;;;;5.50;4.40;;;21.40;52.00;;;;;;10428447;28;20228;-16
2021/05/22 19:22:34;;;;;;;6.53;4.13;;;21.40;52.10;;;;;;10411390;28;20229;-15
2021/05/22 19:27:56;;;;;;;5.97;3.40;;;21.40;52.10;;;;;;10415222;28;20670;-15
2021/05/22 19:33:19;;;;;;;4.83;3.47;;;21.40;52.10;;;;;;10419283;28;20569;-15
2021/05/22 19:38:40;;;;;;;5.33;3.10;;;21.30;52.40;;;;;;10452192;28;20217;-15
2021/05/22 19:44:02;;;;;;;5.20;2.87;;;21.40;52.20;;;;;;10406047;28;20202;-15
2021/05/22 19:49:25;;;;;;;3.13;2.30;;;21.30;51.70;;;;;;10405394;28;20214;-14
2021/05/22 19:54:46;;;;;;;4.37;2.33;;;21.30;51.30;;;;;;10412818;28;20227;-15
2021/05/22 20:00:11;;;;;;;6.07;2.20;;;21.30;51.40;;;;;;10413545;28;20220;-15
2021/05/22 20:05:33;;;;;;;4.87;1.77;;;21.30;51.10;;;;;;10446612;28;20315;-15
2021/05/22 20:10:56;;;;;;;3.73;1.77;;;21.30;50.70;;;;;;10454344;28;20220;-16
2021/05/22 20:16:17;;;;;;;3.13;1.80;;;21.30;49.80;;;;;;10448618;28;20217;-16
2021/05/22 20:21:40;;;;;;;2.43;1.50;;;21.30;49.60;;;;;;10448401;28;20724;-15
2021/05/22 20:27:02;;;;;;;2.27;1.27;;;21.40;49.70;;;;;;10449331;28;20193;-15
2021/05/22 20:32:23;;;;;;;4.03;1.73;;;21.30;48.50;;;;;;10451016;28;20217;-15
2021/05/22 20:37:46;;;;;;;3.10;1.53;;;21.30;49.70;;;;;;10454843;28;20220;-15
2021/05/22 20:43:08;;;;;;;3.63;1.40;;;21.20;50.40;;;;;;10404843;28;20705;-15
2021/05/22 20:48:30;;;;;;;5.33;1.43;;;21.10;51.20;;;;;;10394222;28;20650;-15
2021/05/22 20:53:52;;;;;;;3.60;1.30;;;21.10;51.50;;;;;;10390130;28;20206;-15
2021/05/22 20:59:14;;;;;;;3.30;1.53;;;21.00;51.90;;;;;;10390232;28;20217;-15
2021/05/22 21:04:36;;;;;;;1.60;1.20;;;21.00;52.00;;;;;;10391040;28;20193;-15
2021/05/22 21:09:59;;;;;;;2.60;1.27;;;21.20;51.60;;;;;;10430464;28;20286;-15
2021/05/22 21:15:23;;;;;;;2.70;1.30;;;21.10;51.80;;;;;;10425510;28;20209;-15
2021/05/22 21:20:45;;;;;;;2.03;1.20;;;21.00;52.10;;;;;;10448109;28;20247;-15
2021/05/22 21:26:07;;;;;;;3.37;1.60;;;21.00;52.30;;;;;;10394230;28;20237;-15
2021/05/22 21:31:33;;;;;;;2.30;1.03;;;21.00;52.40;;;;;;10378627;28;20571;-15
2021/05/22 21:36:55;;;;;;;1.40;1.00;;;20.90;52.50;;;;;;10409602;28;20260;-15
2021/05/22 21:42:17;;;;;;;1.53;1.10;;;20.90;52.50;;;;;;10405184;28;20232;-16
2021/05/22 21:47:40;;;;;;;2.27;1.37;;;20.90;53.20;;;;;;10410485;28;20650;-15
2021/05/22 21:53:01;;;;;;;1.93;1.23;;;20.80;52.90;;;;;;10371366;28;20218;-16
2021/05/22 21:58:24;;;;;;;4.67;1.17;;;20.90;52.60;;;;;;10370480;28;20222;-14
2021/05/22 22:03:46;;;;;;;1.77;1.10;;;20.90;52.40;;;;;;10416173;28;20605;-15
2021/05/22 22:09:08;;;;;;;1.87;1.10;;;20.90;52.60;;;;;;10418134;28;20591;-14
2021/05/22 22:14:30;;;;;;;1.60;1.20;;;20.90;52.60;;;;;;10409750;28;20694;-15
2021/05/22 22:19:52;;;;;;;2.53;1.10;;;20.80;52.70;;;;;;10409763;28;20222;-15
2021/05/22 22:25:15;;;;;;;1.80;1.10;;;20.80;52.70;;;;;;10409448;28;20264;-15
2021/05/22 22:30:37;;;;;;;1.73;1.10;;;20.90;52.70;;;;;;10410290;28;20697;-14
2021/05/22 22:36:07;;;;;;;1.43;1.03;;;20.90;52.70;;;;;;10408935;28;20213;-15
2021/05/22 22:41:30;;;;;;;1.40;1.00;;;20.90;52.50;;;;;;10403436;28;20686;-14
2021/05/22 22:46:53;;;;;;;1.60;1.00;;;20.90;52.70;;;;;;10410162;28;20194;-15
2021/05/22 22:52:16;;;;;;;2.40;1.00;;;20.80;52.80;;;;;;10408662;28;20218;-14
2021/05/22 22:57:37;;;;;;;1.53;0.93;;;20.80;52.70;;;;;;10411968;28;20259;-23
2021/05/22 23:03:00;;;;;;;0.83;0.73;;;20.80;52.70;;;;;;10413104;28;20228;-14
2021/05/22 23:08:21;;;;;;;2.50;1.00;;;20.90;52.70;;;;;;10388916;28;20194;-14
2021/05/22 23:13:43;;;;;;;1.37;0.93;;;20.90;52.60;;;;;;10378292;28;20261;-15
2021/05/22 23:19:06;;;;;;;1.67;1.00;;;20.90;52.40;;;;;;10420106;23;20555;-18
2021/05/22 23:24:27;;;;;;;1.50;1.07;;;20.90;52.20;;;;;;10505673;28;20196;-15
2021/05/22 23:29:49;;;;;;;1.30;0.93;;;20.90;52.50;;;;;;10523453;28;20220;-15
2021/05/22 23:35:14;;;;;;;2.13;1.10;;;20.90;52.50;;;;;;10498125;28;20730;-16
2021/05/22 23:40:37;;;;;;;1.87;0.90;;;20.90;52.50;;;;;;10350406;28;20729;-15
2021/05/22 23:45:59;;;;;;;1.27;0.80;;;20.80;52.50;;;;;;10540717;28;20551;-16
2021/05/22 23:51:21;;;;;;;1.77;0.83;;;20.90;52.50;;;;;;10540335;28;20216;-17
2021/05/22 23:56:43;;;;;;;1.57;0.90;;;20.90;52.30;;;;;;10539746;28;20222;-15
